Time;durP1;ratioP1;P1;durP2;ratioP2;P2;SDS_P1;SDS_P2;PMS_P1;PMS_P2;Temp;Humidity;BMP_temperature;BMP_pressure;BME280_temperature;BME280_humidity;BME280_pressure;Samples;Min_cycle;Max_cycle;Signal;HPM_P1;HPM_P2
2021/12/07 00:00:26;;;;;;;18.35;8.15;;;7.40;90.80;;;;;;5094057;28;20077;-81
2021/12/07 00:02:52;;;;;;;12.27;5.32;;;7.40;90.70;;;;;;5103756;28;20043;-79
2021/12/07 00:05:18;;;;;;;4.78;3.28;;;7.40;90.80;;;;;;5082755;28;20024;-79
2021/12/07 00:07:44;;;;;;;22.92;11.10;;;7.40;90.90;;;;;;5092064;28;20471;-79
2021/12/07 00:10:12;;;;;;;10.10;5.68;;;7.40;90.80;;;;;;5093214;28;20035;-80
2021/12/07 00:12:41;;;;;;;16.65;8.85;;;7.40;90.80;;;;;;5079969;28;20483;-79
2021/12/07 00:15:08;;;;;;;16.55;7.82;;;7.40;90.80;;;;;;5080464;28;20035;-80
2021/12/07 00:17:35;;;;;;;14.38;7.18;;;7.40;90.70;;;;;;5092261;28;20063;-79
2021/12/07 00:20:12;;;;;;;16.27;9.32;;;7.40;90.80;;;;;;5099921;28;20032;-80
2021/12/07 00:22:39;;;;;;;16.55;8.60;;;7.40;90.70;;;;;;5081748;28;20085;-79
2021/12/07 00:25:07;;;;;;;16.60;8.30;;;7.40;90.70;;;;;;5092852;28;20221;-79
2021/12/07 00:27:33;;;;;;;8.38;4.65;;;7.40;90.60;;;;;;5093551;28;20067;-79
2021/12/07 00:29:59;;;;;;;20.38;10.88;;;7.40;90.70;;;;;;5091209;28;20063;-79
2021/12/07 00:32:32;;;;;;;8.77;5.35;;;7.30;90.60;;;;;;5082224;28;20040;-79
2021/12/07 00:37:26;;;;;;;13.80;5.75;;;7.40;90.70;;;;;;5091857;28;19908;-79
2021/12/07 00:39:53;;;;;;;17.52;10.50;;;7.30;90.70;;;;;;5074241;28;20040;-78
2021/12/07 00:42:20;;;;;;;16.63;9.75;;;7.40;90.60;;;;;;5055060;28;20032;-79
2021/12/07 00:44:46;;;;;;;17.88;10.57;;;7.40;90.60;;;;;;5085941;28;20544;-79
2021/12/07 00:47:15;;;;;;;10.63;4.47;;;7.30;90.50;;;;;;5093147;28;20032;-79
2021/12/07 00:49:42;;;;;;;15.05;7.88;;;7.30;90.60;;;;;;5092927;28;20527;-79
2021/12/07 00:52:08;;;;;;;14.45;8.20;;;7.30;90.60;;;;;;5092462;28;20039;-79
2021/12/07 00:54:34;;;;;;;17.98;9.25;;;7.30;90.60;;;;;;5092827;28;20380;-79
2021/12/07 00:57:02;;;;;;;7.45;3.65;;;7.30;90.50;;;;;;5074885;28;20142;-79
2021/12/07 00:59:29;;;;;;;9.85;5.43;;;7.30;90.80;;;;;;5073450;28;20024;-79
2021/12/07 01:01:55;;;;;;;16.70;9.13;;;7.30;90.60;;;;;;5082251;28;20364;-79
2021/12/07 01:04:22;;;;;;;14.13;9.23;;;7.30;90.60;;;;;;5095839;28;20034;-79
2021/12/07 01:07:23;;;;;;;7.47;3.97;;;7.30;90.50;;;;;;5073960;28;20031;-79
2021/12/07 01:26:10;;;;;;;13.70;7.05;;;7.20;90.60;;;;;;5081428;28;20078;-79
2021/12/07 01:28:41;;;;;;;13.40;7.13;;;7.30;90.60;;;;;;5090418;28;20519;-80
2021/12/07 01:31:21;;;;;;;14.93;7.72;;;7.20;90.50;;;;;;5074693;28;20031;-80
2021/12/07 02:00:01;;;;;;;10.07;5.65;;;7.10;90.50;;;;;;5073055;28;20475;-80
2021/12/07 02:02:29;;;;;;;11.23;6.72;;;7.10;90.50;;;;;;5073044;28;20032;-78
2021/12/07 02:04:56;;;;;;;9.43;4.78;;;7.10;90.50;;;;;;5073888;28;20029;-79
2021/12/07 02:07:27;;;;;;;10.50;5.43;;;7.10;90.50;;;;;;5074250;28;20036;-79
2021/12/07 02:09:57;;;;;;;7.68;4.45;;;7.10;90.50;;;;;;5073261;28;20024;-79
2021/12/07 02:12:24;;;;;;;9.07;5.38;;;7.10;90.50;;;;;;5077594;28;20047;-79
2021/12/07 02:14:50;;;;;;;5.13;3.47;;;7.10;90.50;;;;;;5072983;28;20024;-79
2021/12/07 02:17:22;;;;;;;10.18;4.95;;;7.10;90.50;;;;;;5075460;28;20122;-79
2021/12/07 02:19:52;;;;;;;11.05;7.13;;;7.10;90.50;;;;;;5072216;28;20020;-80
2021/12/07 02:22:18;;;;;;;11.88;6.35;;;7.10;90.50;;;;;;5074691;28;20036;-79
2021/12/07 02:24:48;;;;;;;15.30;9.40;;;7.10;90.50;;;;;;5071558;28;20035;-80
2021/12/07 02:27:14;;;;;;;8.60;5.20;;;7.00;90.40;;;;;;5073688;28;20115;-79
2021/12/07 02:29:40;;;;;;;11.88;6.95;;;7.10;90.50;;;;;;5076686;28;20094;-79
2021/12/07 02:32:07;;;;;;;10.65;4.35;;;7.10;90.50;;;;;;5070274;28;20068;-80
2021/12/07 02:34:35;;;;;;;11.02;6.68;;;7.00;90.40;;;;;;5077344;28;20024;-79
2021/12/07 02:37:02;;;;;;;4.72;2.80;;;7.00;90.40;;;;;;5069572;28;20050;-79
2021/12/07 02:39:33;;;;;;;1.70;1.52;;;7.00;90.40;;;;;;5069023;28;20533;-79
2021/12/07 02:42:03;;;;;;;9.02;5.75;;;7.00;90.50;;;;;;5059492;28;20024;-80
2021/12/07 02:44:30;;;;;;;6.05;3.47;;;7.00;90.50;;;;;;5060942;28;20052;-80
2021/12/07 02:46:57;;;;;;;8.18;4.85;;;7.00;90.40;;;;;;5077010;28;20483;-81
2021/12/07 02:49:23;;;;;;;5.40;2.90;;;7.00;90.50;;;;;;5077000;28;20020;-79
2021/12/07 02:51:50;;;;;;;5.72;3.40;;;6.90;90.40;;;;;;5076159;28;20054;-78
2021/12/07 02:54:17;;;;;;;8.40;5.28;;;6.90;90.30;;;;;;5073761;28;20041;-79
2021/12/07 02:56:45;;;;;;;6.63;4.15;;;6.90;90.10;;;;;;5072500;28;20028;-79
2021/12/07 02:59:12;;;;;;;7.70;3.70;;;6.80;90.00;;;;;;5076442;28;20263;-79
2021/12/07 03:01:45;;;;;;;10.90;6.10;;;6.80;90.10;;;;;;5099959;28;20016;-79
2021/12/07 03:04:18;;;;;;;6.13;3.83;;;6.70;90.10;;;;;;5088331;28;20044;-79
2021/12/07 03:28:12;;;;;;;9.25;5.88;;;6.50;90.40;;;;;;5075742;28;20028;-80
2021/12/07 03:30:38;;;;;;;4.25;2.67;;;6.50;90.40;;;;;;5076036;28;20024;-80
2021/12/07 03:33:05;;;;;;;6.28;3.65;;;6.50;90.40;;;;;;5063526;28;20123;-79
2021/12/07 03:35:31;;;;;;;8.98;5.18;;;6.50;90.30;;;;;;5085190;28;20028;-79
2021/12/07 03:37:58;;;;;;;7.55;3.92;;;6.50;90.30;;;;;;5076299;28;20028;-79
2021/12/07 03:40:24;;;;;;;5.82;3.58;;;6.50;90.30;;;;;;5076200;28;20025;-80
2021/12/07 03:42:50;;;;;;;6.78;3.70;;;6.50;90.30;;;;;;5093485;28;20356;-80
2021/12/07 03:45:16;;;;;;;7.35;4.57;;;6.50;90.30;;;;;;5076338;28;20028;-80
2021/12/07 03:47:43;;;;;;;5.30;3.17;;;6.40;90.20;;;;;;5075327;28;20028;-80
2021/12/07 03:50:11;;;;;;;7.78;4.55;;;6.40;90.20;;;;;;5086493;28;20101;-80
2021/12/07 03:52:37;;;;;;;4.80;3.30;;;6.40;90.30;;;;;;5066005;28;20035;-81
2021/12/07 03:55:05;;;;;;;6.18;3.85;;;6.40;90.30;;;;;;5061943;28;20123;-80
2021/12/07 03:57:31;;;;;;;5.63;2.92;;;6.40;90.30;;;;;;5083247;28;20028;-80
2021/12/07 03:59:56;;;;;;;6.30;3.20;;;6.40;90.30;;;;;;5091688;28;20020;-80
2021/12/07 04:02:24;;;;;;;8.35;4.30;;;6.40;90.20;;;;;;5063581;28;20036;-79
2021/12/07 04:04:58;;;;;;;2.53;1.83;;;6.40;90.20;;;;;;5068861;28;20016;-79
2021/12/07 04:07:24;;;;;;;4.78;3.13;;;6.40;90.20;;;;;;5069117;28;20393;-78
2021/12/07 04:09:53;;;;;;;6.80;3.88;;;6.30;90.20;;;;;;5080082;28;20020;-80
2021/12/07 04:12:19;;;;;;;7.70;3.85;;;6.30;90.30;;;;;;5093421;28;20058;-78
2021/12/07 04:14:44;;;;;;;5.43;3.55;;;6.30;90.20;;;;;;5094169;28;20032;-79
2021/12/07 04:17:10;;;;;;;8.90;5.53;;;6.30;90.20;;;;;;5092831;28;20081;-79
2021/12/07 04:19:36;;;;;;;7.10;2.28;;;6.30;90.30;;;;;;5067486;28;20496;-79
2021/12/07 04:22:04;;;;;;;5.85;3.65;;;6.30;90.30;;;;;;5070204;28;20028;-79
2021/12/07 04:24:33;;;;;;;6.38;2.83;;;6.30;90.40;;;;;;5092792;28;20562;-78
2021/12/07 04:26:59;;;;;;;7.72;4.45;;;6.20;90.30;;;;;;5093387;28;20055;-78
2021/12/07 04:29:24;;;;;;;5.10;3.40;;;6.30;90.30;;;;;;5093515;28;20051;-79
2021/12/07 04:31:50;;;;;;;6.05;2.85;;;6.20;90.30;;;;;;5092620;28;20032;-79
2021/12/07 04:34:15;;;;;;;10.77;6.00;;;6.20;90.30;;;;;;5092496;28;20074;-78
2021/12/07 04:36:41;;;;;;;3.72;2.55;;;6.20;90.30;;;;;;5093162;28;20089;-78
2021/12/07 04:39:08;;;;;;;2.05;1.63;;;6.20;90.40;;;;;;5092796;28;20028;-79
2021/12/07 04:41:35;;;;;;;9.23;4.68;;;6.20;90.40;;;;;;5092994;28;20016;-79
2021/12/07 04:44:04;;;;;;;10.85;6.32;;;6.10;90.40;;;;;;5092717;28;20043;-79
2021/12/07 04:46:40;;;;;;;7.45;4.97;;;6.20;90.40;;;;;;5093266;28;20102;-79
2021/12/07 04:49:44;;;;;;;10.45;5.57;;;6.20;90.40;;;;;;5093280;28;20032;-80
2021/12/07 05:00:28;;;;;;;9.43;6.15;;;6.10;90.40;;;;;;5071700;28;20130;-81
2021/12/07 05:03:04;;;;;;;7.03;4.15;;;6.10;90.40;;;;;;5106775;28;20069;-80
2021/12/07 05:05:35;;;;;;;9.35;4.45;;;6.00;90.70;;;;;;5103587;28;20467;-80
2021/12/07 05:08:05;;;;;;;3.83;2.42;;;6.10;90.50;;;;;;5107275;28;20023;-79
2021/12/07 05:10:37;;;;;;;11.30;6.20;;;6.00;90.50;;;;;;5112211;28;20036;-78
2021/12/07 05:39:52;;;;;;;10.02;4.82;;;5.90;90.30;;;;;;5101134;28;20027;-81
2021/12/07 05:42:19;;;;;;;7.82;5.43;;;5.90;90.30;;;;;;5101568;28;20130;-81
2021/12/07 05:44:45;;;;;;;6.70;3.90;;;5.90;90.40;;;;;;5094636;28;20109;-77
2021/12/07 05:47:10;;;;;;;11.60;6.25;;;5.90;90.40;;;;;;5096119;28;20090;-79
2021/12/07 05:49:36;;;;;;;9.02;3.55;;;5.90;90.70;;;;;;5093289;28;20028;-81
2021/12/07 05:52:03;;;;;;;5.53;3.45;;;5.90;90.40;;;;;;5087637;28;20040;-82
2021/12/07 05:54:28;;;;;;;1.25;1.17;;;5.90;90.40;;;;;;5113095;28;20143;-81
2021/12/07 05:56:54;;;;;;;4.35;2.55;;;5.90;90.30;;;;;;5108600;28;20135;-82
2021/12/07 05:59:20;;;;;;;7.53;4.15;;;5.90;90.30;;;;;;5104789;28;20047;-82
2021/12/07 06:01:46;;;;;;;1.88;1.73;;;5.90;90.30;;;;;;5109551;28;20035;-83
2021/12/07 06:04:12;;;;;;;1.75;1.65;;;5.90;90.60;;;;;;5100531;28;20034;-84
2021/12/07 06:06:39;;;;;;;6.20;3.67;;;5.90;90.30;;;;;;5097913;28;20036;-81
2021/12/07 06:09:04;;;;;;;5.22;2.80;;;5.80;90.20;;;;;;5107029;28;20077;-79
2021/12/07 06:11:32;;;;;;;2.47;1.92;;;5.90;90.20;;;;;;5100884;28;20043;-79
2021/12/07 06:13:57;;;;;;;5.70;3.10;;;5.80;90.20;;;;;;5097493;28;20031;-80
2021/12/07 06:16:24;;;;;;;3.97;1.95;;;5.70;90.20;;;;;;5108190;28;20072;-79
2021/12/07 06:18:50;;;;;;;6.40;3.20;;;5.70;90.30;;;;;;5105660;28;20484;-76
2021/12/07 06:21:16;;;;;;;4.15;2.85;;;5.60;90.30;;;;;;5113749;28;20078;-74
2021/12/07 06:23:42;;;;;;;5.82;3.60;;;5.60;90.40;;;;;;5108013;28;20051;-77
2021/12/07 06:26:08;;;;;;;3.65;2.67;;;5.50;90.50;;;;;;5108775;28;20387;-78
2021/12/07 06:28:34;;;;;;;2.50;1.63;;;5.40;90.60;;;;;;5101057;28;20029;-76
2021/12/07 06:30:59;;;;;;;8.18;1.58;;;5.40;90.70;;;;;;5096695;28;20028;-79
2021/12/07 06:33:26;;;;;;;3.40;1.85;;;5.40;90.80;;;;;;5108882;28;20081;-80
2021/12/07 06:35:59;;;;;;;3.30;1.75;;;5.40;90.90;;;;;;5115144;28;20035;-80
2021/12/07 06:38:29;;;;;;;3.13;2.72;;;5.40;91.00;;;;;;5090956;28;20035;-75
2021/12/07 06:40:56;;;;;;;9.20;2.22;;;5.40;91.00;;;;;;5109436;28;20027;-76
2021/12/07 06:43:22;;;;;;;4.65;1.77;;;5.30;91.00;;;;;;5110029;28;20019;-78
2021/12/07 06:45:50;;;;;;;5.55;2.15;;;5.30;91.10;;;;;;5084494;28;20039;-77
2021/12/07 06:48:16;;;;;;;7.80;1.90;;;5.30;91.10;;;;;;5066441;28;20576;-78
2021/12/07 06:50:43;;;;;;;2.25;1.83;;;5.30;91.10;;;;;;5091875;28;20478;-77
2021/12/07 06:53:09;;;;;;;3.83;1.98;;;5.30;91.10;;;;;;5088003;28;20085;-77
2021/12/07 06:55:35;;;;;;;1.73;1.63;;;5.30;91.10;;;;;;5095116;28;20036;-77
2021/12/07 06:58:01;;;;;;;1.45;1.35;;;5.30;91.20;;;;;;5087330;28;20028;-77
2021/12/07 07:00:27;;;;;;;3.15;1.33;;;5.30;91.20;;;;;;5104233;28;20036;-78
2021/12/07 07:02:53;;;;;;;0.93;0.93;;;5.30;91.20;;;;;;5094105;28;20035;-77
2021/12/07 07:05:19;;;;;;;1.80;1.13;;;5.30;91.20;;;;;;5093503;28;20038;-77
2021/12/07 07:07:45;;;;;;;0.98;0.98;;;5.30;91.20;;;;;;5089348;28;20029;-77
2021/12/07 07:10:16;;;;;;;4.80;2.58;;;5.30;91.20;;;;;;5086849;28;20111;-77
2021/12/07 07:12:44;;;;;;;0.93;0.93;;;5.30;91.20;;;;;;5080881;28;20036;-77
2021/12/07 07:15:10;;;;;;;1.42;1.33;;;5.30;91.20;;;;;;5094858;28;20035;-76
2021/12/07 07:17:37;;;;;;;1.85;1.58;;;5.30;91.20;;;;;;5081632;28;20032;-79
2021/12/07 07:20:05;;;;;;;3.65;1.92;;;5.30;91.20;;;;;;5093886;28;20107;-77
2021/12/07 07:22:31;;;;;;;3.55;2.10;;;5.30;91.20;;;;;;5087173;28;20040;-78
2021/12/07 07:24:56;;;;;;;10.45;1.92;;;5.30;91.20;;;;;;5088944;28;20055;-78
2021/12/07 07:27:22;;;;;;;4.53;1.73;;;5.30;91.20;;;;;;5094104;28;20040;-79
2021/12/07 07:29:48;;;;;;;3.92;2.22;;;5.40;91.20;;;;;;5094723;28;20028;-77
2021/12/07 07:32:14;;;;;;;7.28;2.85;;;5.40;91.10;;;;;;5094713;28;20040;-77
2021/12/07 07:34:39;;;;;;;2.22;1.38;;;5.40;91.10;;;;;;5093654;28;20040;-78
2021/12/07 07:37:05;;;;;;;3.33;1.98;;;5.40;91.10;;;;;;5094031;28;20020;-78
2021/12/07 07:39:32;;;;;;;7.38;2.50;;;5.40;91.00;;;;;;5094139;28;20585;-77
2021/12/07 07:41:57;;;;;;;0.75;0.73;;;5.30;91.00;;;;;;5094098;28;20035;-77
2021/12/07 07:44:33;;;;;;;2.80;2.25;;;5.30;91.10;;;;;;5058382;28;20032;-77
2021/12/07 07:46:59;;;;;;;1.45;1.35;;;5.30;91.20;;;;;;5084049;28;20038;-79
2021/12/07 07:49:25;;;;;;;1.75;1.30;;;5.20;91.30;;;;;;5093720;28;20067;-77
2021/12/07 07:51:51;;;;;;;7.85;2.17;;;5.20;91.40;;;;;;5092501;28;20028;-77
2021/12/07 07:54:17;;;;;;;6.00;2.00;;;5.20;91.50;;;;;;5089071;28;20093;-77
2021/12/07 07:56:42;;;;;;;6.13;1.83;;;5.20;91.60;;;;;;5077961;28;20035;-77
2021/12/07 07:59:08;;;;;;;3.10;2.28;;;5.10;91.60;;;;;;5094267;28;20063;-77
2021/12/07 08:01:34;;;;;;;4.90;1.25;;;5.10;91.70;;;;;;5089104;28;20032;-77
2021/12/07 08:04:01;;;;;;;2.08;1.33;;;5.10;91.80;;;;;;5084616;28;20036;-83
2021/12/07 08:06:28;;;;;;;2.47;1.83;;;5.10;91.80;;;;;;5093547;28;20032;-83
2021/12/07 08:08:54;;;;;;;2.47;1.60;;;5.10;91.80;;;;;;5093201;28;20092;-75
2021/12/07 08:11:19;;;;;;;1.38;1.17;;;5.10;91.80;;;;;;5093409;28;20052;-74
2021/12/07 08:13:45;;;;;;;1.85;1.50;;;5.20;91.80;;;;;;5093785;28;20040;-77
2021/12/07 08:16:15;;;;;;;3.97;2.50;;;5.20;91.70;;;;;;5092929;28;20484;-77
2021/12/07 08:18:46;;;;;;;2.92;2.00;;;5.20;91.70;;;;;;5094226;28;20487;-77
2021/12/07 08:21:13;;;;;;;2.22;0.85;;;5.20;91.70;;;;;;5080026;28;20020;-77
2021/12/07 08:23:40;;;;;;;6.88;2.17;;;5.30;91.70;;;;;;5092405;28;20028;-76
2021/12/07 08:26:08;;;;;;;3.40;1.77;;;5.20;91.60;;;;;;5092274;28;20438;-77
2021/12/07 08:28:34;;;;;;;7.05;2.97;;;5.30;91.60;;;;;;5092935;28;20028;-77
2021/12/07 08:31:00;;;;;;;5.45;2.50;;;5.30;91.60;;;;;;5092688;28;20032;-77
2021/12/07 08:33:27;;;;;;;7.43;1.80;;;5.30;91.80;;;;;;5090295;28;20067;-77
2021/12/07 08:35:53;;;;;;;6.60;3.10;;;5.30;91.50;;;;;;5093733;28;20028;-77
2021/12/07 08:38:19;;;;;;;5.10;2.53;;;5.30;91.50;;;;;;5092567;28;20060;-77
2021/12/07 08:40:53;;;;;;;6.18;3.15;;;5.30;91.50;;;;;;5093327;28;20062;-79
2021/12/07 08:43:19;;;;;;;;;;;5.30;91.50;;;;;;5079387;28;20028;-79
2021/12/07 08:45:45;;;;;;;7.13;2.92;;;5.40;91.50;;;;;;5093656;28;20393;-77
2021/12/07 08:48:11;;;;;;;9.07;3.10;;;5.40;91.30;;;;;;5088052;28;20039;-77
2021/12/07 08:50:36;;;;;;;8.07;2.85;;;5.40;91.40;;;;;;5084501;28;20103;-77
2021/12/07 08:53:07;;;;;;;5.05;2.55;;;5.40;91.40;;;;;;5085509;28;20062;-77
2021/12/07 09:01:05;;;;;;;1.63;1.38;;;5.40;91.30;;;;;;5092935;28;20062;-77
2021/12/07 09:03:31;;;;;;;1.95;0.85;;;5.40;91.30;;;;;;5093156;28;20391;-76
2021/12/07 09:05:56;;;;;;;8.35;3.63;;;5.40;91.30;;;;;;5092054;28;20034;-77
2021/12/07 09:08:22;;;;;;;3.28;2.20;;;5.30;91.40;;;;;;5079826;28;20059;-77
2021/12/07 09:10:49;;;;;;;3.85;1.98;;;5.40;91.40;;;;;;5092276;28;20067;-77
2021/12/07 09:13:14;;;;;;;14.95;3.15;;;5.40;91.40;;;;;;5078626;28;20051;-76
2021/12/07 09:15:40;;;;;;;6.20;3.10;;;5.40;91.40;;;;;;5092840;28;20020;-77
2021/12/07 09:18:06;;;;;;;5.68;2.17;;;5.40;91.40;;;;;;5079219;28;20047;-77
2021/12/07 09:20:33;;;;;;;6.70;2.65;;;5.40;91.30;;;;;;5091784;28;20035;-77
2021/12/07 09:22:59;;;;;;;11.23;3.58;;;5.50;91.30;;;;;;5092389;28;20434;-77
2021/12/07 09:25:24;;;;;;;7.15;3.17;;;5.50;91.30;;;;;;5091967;28;20028;-77
2021/12/07 09:27:50;;;;;;;6.50;2.75;;;5.60;91.30;;;;;;5091656;28;20032;-77
2021/12/07 09:30:17;;;;;;;1.80;1.30;;;5.50;91.30;;;;;;5092761;28;20123;-77
2021/12/07 09:32:45;;;;;;;9.15;2.80;;;5.50;91.20;;;;;;5091798;28;20074;-77
2021/12/07 09:35:11;;;;;;;7.22;2.10;;;5.50;91.20;;;;;;5092746;28;20038;-77
2021/12/07 09:37:37;;;;;;;2.17;1.63;;;5.60;91.20;;;;;;5092222;28;20123;-76
2021/12/07 09:40:10;;;;;;;10.57;3.33;;;5.60;91.20;;;;;;5091979;28;20028;-75
2021/12/07 09:42:36;;;;;;;5.97;1.95;;;5.60;91.20;;;;;;5079654;28;20031;-75
2021/12/07 09:45:04;;;;;;;6.43;2.90;;;5.60;91.20;;;;;;5092443;28;20384;-76
2021/12/07 09:47:30;;;;;;;9.43;2.85;;;5.70;91.20;;;;;;5091533;28;20077;-76
2021/12/07 09:49:56;;;;;;;5.43;2.95;;;5.70;91.20;;;;;;5092217;28;20028;-75
2021/12/07 09:52:22;;;;;;;2.28;1.52;;;5.70;91.20;;;;;;5092035;28;20593;-76
2021/12/07 09:54:47;;;;;;;6.22;1.70;;;5.70;91.10;;;;;;5078423;28;20025;-76
2021/12/07 09:57:13;;;;;;;2.78;1.27;;;5.70;91.10;;;;;;5092135;28;20028;-77
2021/12/07 09:59:38;;;;;;;5.70;2.00;;;5.70;91.10;;;;;;5092248;28;20032;-76
2021/12/07 10:02:07;;;;;;;2.30;1.85;;;5.70;91.20;;;;;;5091461;28;20024;-76
2021/12/07 10:04:34;;;;;;;6.72;2.83;;;5.70;91.30;;;;;;5078753;28;20039;-75
2021/12/07 10:07:00;;;;;;;1.58;1.02;;;5.70;91.50;;;;;;5092558;28;20024;-75
2021/12/07 10:09:25;;;;;;;3.53;2.42;;;5.60;91.60;;;;;;5091350;28;20161;-75
2021/12/07 10:11:52;;;;;;;6.50;2.42;;;5.60;91.70;;;;;;5092108;28;20112;-75
2021/12/07 10:14:18;;;;;;;8.30;2.38;;;5.60;91.90;;;;;;5091764;28;20380;-75
2021/12/07 10:16:46;;;;;;;5.88;1.85;;;5.60;92.00;;;;;;5091498;28;20476;-76
2021/12/07 10:19:15;;;;;;;4.25;2.25;;;5.60;92.10;;;;;;5091646;28;20115;-73
2021/12/07 10:21:43;;;;;;;9.40;2.53;;;5.60;92.20;;;;;;5091130;28;20042;-78
2021/12/07 10:24:11;;;;;;;5.53;2.40;;;5.60;92.30;;;;;;5090773;28;20053;-77
2021/12/07 10:26:41;;;;;;;4.78;2.15;;;5.50;92.40;;;;;;5102070;28;20368;-77
2021/12/07 10:29:12;;;;;;;1.75;1.23;;;5.50;92.40;;;;;;5080275;28;20032;-78
2021/12/07 10:31:50;;;;;;;3.58;1.60;;;5.50;92.50;;;;;;5090107;28;20029;-77
2021/12/07 10:34:19;;;;;;;2.90;2.20;;;5.60;92.50;;;;;;5090050;28;20063;-77
2021/12/07 10:36:50;;;;;;;3.15;2.25;;;5.60;92.50;;;;;;5093662;28;20055;-77
2021/12/07 10:39:27;;;;;;;6.07;2.45;;;5.60;92.60;;;;;;5094705;28;20036;-78
2021/12/07 10:41:59;;;;;;;5.13;1.02;;;5.60;92.60;;;;;;5095737;28;20046;-77
2021/12/07 10:44:27;;;;;;;2.80;1.55;;;5.70;92.70;;;;;;5094228;28;20028;-77
2021/12/07 10:46:56;;;;;;;3.38;1.58;;;5.70;92.70;;;;;;5094505;28;20040;-77
2021/12/07 10:49:32;;;;;;;3.95;1.85;;;5.70;92.80;;;;;;5093982;28;20040;-77
2021/12/07 10:52:04;;;;;;;8.95;2.40;;;5.70;92.80;;;;;;5093275;28;20035;-78
2021/12/07 10:54:32;;;;;;;4.72;2.38;;;5.80;92.90;;;;;;5095492;28;20104;-77
2021/12/07 10:57:02;;;;;;;8.23;2.88;;;5.80;93.10;;;;;;5091891;28;20031;-77
2021/12/07 10:59:29;;;;;;;5.78;2.22;;;5.80;93.20;;;;;;5096004;28;20036;-78
2021/12/07 11:01:54;;;;;;;9.90;2.83;;;5.80;93.30;;;;;;5080109;28;20471;-77
2021/12/07 11:04:33;;;;;;;0.95;0.95;;;5.90;93.40;;;;;;5087332;28;20060;-77
2021/12/07 11:07:12;;;;;;;2.78;1.73;;;5.90;93.50;;;;;;5095019;28;20036;-77
2021/12/07 11:13:06;;;;;;;1.65;1.40;;;5.90;93.60;;;;;;5101245;28;20408;-72
2021/12/07 11:15:35;;;;;;;2.20;1.25;;;6.00;93.50;;;;;;5074740;28;20071;-72
2021/12/07 11:18:04;;;;;;;5.20;1.30;;;6.10;93.50;;;;;;5098022;28;20138;-74
2021/12/07 11:20:31;;;;;;;1.65;1.38;;;6.10;93.50;;;;;;5095820;28;20384;-73
2021/12/07 11:23:04;;;;;;;6.60;2.08;;;6.20;93.50;;;;;;5103903;28;20042;-73
2021/12/07 11:31:21;;;;;;;8.15;2.53;;;6.30;93.30;;;;;;5113043;28;20428;-74
2021/12/07 11:33:48;;;;;;;2.85;1.45;;;6.40;93.30;;;;;;5112707;28;20043;-74
2021/12/07 11:36:17;;;;;;;1.15;0.80;;;6.50;93.30;;;;;;5113957;28;20394;-74
2021/12/07 11:38:43;;;;;;;7.03;1.38;;;6.60;93.30;;;;;;5100212;28;20025;-74
2021/12/07 11:41:23;;;;;;;14.25;2.72;;;6.60;93.30;;;;;;5113475;28;20027;-74
2021/12/07 11:43:52;;;;;;;1.63;1.52;;;6.60;93.20;;;;;;5109546;28;20036;-75
2021/12/07 11:46:20;;;;;;;4.75;2.33;;;6.70;93.30;;;;;;5107554;28;20031;-74
2021/12/07 11:48:46;;;;;;;12.70;2.00;;;6.70;93.40;;;;;;5108422;28;20031;-75
2021/12/07 11:51:12;;;;;;;9.15;2.25;;;6.70;93.50;;;;;;5103418;28;20032;-75
2021/12/07 11:53:37;;;;;;;6.03;2.10;;;6.80;93.70;;;;;;5092420;28;20044;-75
2021/12/07 11:56:03;;;;;;;5.68;2.33;;;6.80;93.80;;;;;;5094274;28;20115;-75
2021/12/07 11:58:29;;;;;;;5.68;1.40;;;6.80;93.90;;;;;;5093832;28;20043;-77
2021/12/07 12:00:57;;;;;;;3.03;1.67;;;6.90;94.10;;;;;;5093497;28;20028;-80
2021/12/07 12:03:24;;;;;;;6.57;2.38;;;6.90;94.10;;;;;;5080537;28;20043;-79
2021/12/07 12:05:52;;;;;;;5.88;2.45;;;6.90;94.20;;;;;;5095118;28;20058;-75
2021/12/07 12:08:20;;;;;;;3.80;1.35;;;6.90;94.30;;;;;;5101090;28;20396;-75
2021/12/07 12:11:18;;;;;;;8.52;2.33;;;7.00;94.30;;;;;;5087229;28;20060;-77
2021/12/07 12:14:19;;;;;;;5.03;1.80;;;7.00;94.40;;;;;;5085153;28;20047;-77
2021/12/07 12:17:09;;;;;;;8.40;1.25;;;7.10;94.50;;;;;;5100227;28;20035;-68
2021/12/07 12:20:18;;;;;;;2.58;1.50;;;7.10;94.50;;;;;;5073605;28;20383;-69
2021/12/07 12:23:02;;;;;;;7.18;1.70;;;7.10;94.60;;;;;;5083211;28;20039;-67
2021/12/07 12:25:28;;;;;;;7.10;2.25;;;7.20;94.70;;;;;;5087531;28;20059;-67
2021/12/07 12:27:57;;;;;;;5.13;2.60;;;7.20;94.70;;;;;;5086349;28;20093;-67
2021/12/07 12:30:24;;;;;;;6.93;1.52;;;7.30;94.80;;;;;;5095459;28;20027;-67
2021/12/07 12:33:03;;;;;;;2.83;1.23;;;7.30;94.80;;;;;;5105979;28;20053;-67
2021/12/07 12:35:37;;;;;;;7.60;2.72;;;7.30;94.80;;;;;;5092122;28;20463;-68
2021/12/07 12:38:14;;;;;;;3.72;1.90;;;7.40;94.80;;;;;;5093526;28;20058;-68
2021/12/07 12:40:39;;;;;;;10.07;0.90;;;7.50;94.80;;;;;;5097659;28;20023;-68
2021/12/07 12:43:05;;;;;;;7.22;2.50;;;7.50;94.80;;;;;;5112313;28;20528;-75
2021/12/07 12:45:36;;;;;;;2.35;1.50;;;7.60;94.70;;;;;;5108420;28;20082;-74
2021/12/07 12:48:20;;;;;;;10.57;2.30;;;7.60;94.70;;;;;;5094526;28;20036;-70
2021/12/07 12:50:52;;;;;;;8.93;2.25;;;7.70;94.50;;;;;;5086180;28;20024;-74
2021/12/07 12:53:25;;;;;;;7.57;2.22;;;7.80;94.50;;;;;;5098377;28;20071;-73
2021/12/07 12:55:53;;;;;;;7.93;2.60;;;7.90;94.50;;;;;;5106881;28;20031;-73
2021/12/07 12:58:36;;;;;;;0.60;0.60;;;7.90;94.50;;;;;;5111688;28;20023;-74
2021/12/07 13:01:28;;;;;;;5.57;1.23;;;8.00;94.50;;;;;;5106998;28;20032;-74
2021/12/07 13:04:20;;;;;;;3.90;1.35;;;8.10;94.50;;;;;;5095087;28;20066;-74
2021/12/07 13:07:06;;;;;;;10.02;2.65;;;8.10;94.40;;;;;;5108576;28;20114;-74
2021/12/07 13:09:56;;;;;;;5.13;1.60;;;8.20;94.40;;;;;;5112446;28;20023;-74
2021/12/07 13:12:42;;;;;;;13.55;2.45;;;8.20;94.40;;;;;;5062900;28;20056;-72
2021/12/07 13:15:12;;;;;;;17.08;2.25;;;8.30;94.30;;;;;;5070904;28;20123;-73
2021/12/07 13:17:41;;;;;;;4.88;2.10;;;8.30;94.30;;;;;;5060810;28;20033;-75
2021/12/07 13:20:44;;;;;;;12.15;3.20;;;8.40;94.30;;;;;;5057264;28;20028;-74
2021/12/07 13:23:13;;;;;;;11.38;3.25;;;8.50;94.30;;;;;;5039980;28;20040;-75
2021/12/07 13:25:52;;;;;;;9.00;2.90;;;8.50;94.20;;;;;;5072032;28;20033;-74
2021/12/07 13:28:32;;;;;;;7.43;2.67;;;8.50;94.10;;;;;;5066453;28;20037;-74
2021/12/07 13:31:11;;;;;;;9.55;2.22;;;8.60;94.20;;;;;;5067425;28;20419;-76
2021/12/07 13:33:53;;;;;;;4.78;2.40;;;8.60;94.10;;;;;;5071706;28;20484;-77
2021/12/07 13:36:28;;;;;;;10.93;3.22;;;8.60;94.10;;;;;;5072123;28;20033;-75
2021/12/07 13:38:57;;;;;;;9.60;2.35;;;8.60;94.10;;;;;;5071424;28;20106;-75
2021/12/07 13:41:23;;;;;;;6.43;2.08;;;8.70;94.10;;;;;;5072035;28;20032;-75
2021/12/07 13:43:50;;;;;;;10.13;2.60;;;8.70;94.10;;;;;;5072382;28;20179;-75
2021/12/07 13:46:28;;;;;;;13.55;2.65;;;8.70;94.10;;;;;;5071792;28;20025;-75
2021/12/07 13:49:05;;;;;;;13.32;3.50;;;8.70;94.00;;;;;;5076293;28;20032;-77
2021/12/07 13:51:30;;;;;;;7.82;3.10;;;8.80;93.90;;;;;;5083946;28;20024;-75
2021/12/07 13:53:56;;;;;;;11.15;3.42;;;8.80;93.80;;;;;;5082954;28;20375;-75
2021/12/07 13:56:22;;;;;;;15.98;3.22;;;8.80;93.80;;;;;;5058136;28;20118;-74
2021/12/07 13:58:58;;;;;;;14.02;3.65;;;8.90;93.70;;;;;;5082158;28;20111;-75
2021/12/07 14:01:30;;;;;;;10.18;3.00;;;8.90;93.50;;;;;;5082586;28;20031;-75
2021/12/07 14:03:57;;;;;;;16.80;3.22;;;8.90;93.30;;;;;;5072683;28;20146;-71
2021/12/07 14:06:23;;;;;;;7.57;2.88;;;8.90;93.20;;;;;;5077788;28;20111;-69
2021/12/07 14:08:49;;;;;;;8.38;2.80;;;8.90;93.20;;;;;;5083291;28;20110;-82
2021/12/07 14:11:17;;;;;;;15.30;3.63;;;8.90;93.20;;;;;;5092511;28;20128;-76
2021/12/07 14:13:45;;;;;;;9.82;2.63;;;8.90;93.10;;;;;;5110553;28;20043;-77
2021/12/07 14:16:13;;;;;;;8.40;2.63;;;9.00;93.10;;;;;;5099302;28;20406;-82
2021/12/07 14:18:42;;;;;;;5.47;2.33;;;9.00;93.00;;;;;;5104701;28;20032;-78
2021/12/07 14:21:08;;;;;;;9.25;3.08;;;9.00;93.00;;;;;;5115352;28;20031;-79
2021/12/07 14:23:38;;;;;;;6.82;3.20;;;9.00;92.80;;;;;;5112875;28;20031;-77
2021/12/07 14:26:19;;;;;;;16.35;3.97;;;9.00;92.60;;;;;;5105265;28;20028;-76
2021/12/07 14:28:52;;;;;;;12.45;3.38;;;9.00;92.50;;;;;;5106667;28;20081;-75
2021/12/07 14:31:20;;;;;;;7.77;2.40;;;8.90;92.40;;;;;;5114798;28;20386;-71
2021/12/07 14:33:54;;;;;;;11.35;2.95;;;8.90;92.50;;;;;;5099488;28;20048;-74
2021/12/07 14:36:28;;;;;;;12.60;3.03;;;9.00;92.50;;;;;;5106701;28;20032;-78
2021/12/07 14:38:57;;;;;;;13.10;4.38;;;9.00;92.40;;;;;;5113913;28;20483;-74
2021/12/07 14:41:26;;;;;;;15.10;4.47;;;9.00;92.20;;;;;;5109416;28;20108;-83
2021/12/07 14:43:54;;;;;;;11.77;3.78;;;9.00;92.00;;;;;;5099996;28;20092;-77
2021/12/07 14:46:22;;;;;;;8.98;2.97;;;8.90;91.80;;;;;;5104806;28;20032;-77
2021/12/07 14:48:49;;;;;;;12.85;2.63;;;8.90;91.80;;;;;;5101895;28;20031;-77
2021/12/07 14:51:22;;;;;;;8.73;2.45;;;8.80;91.80;;;;;;5105420;28;20519;-72
2021/12/07 14:53:52;;;;;;;11.02;2.85;;;8.80;91.80;;;;;;5100835;28;20031;-74
2021/12/07 14:56:19;;;;;;;22.35;3.40;;;8.80;91.70;;;;;;5101682;28;20036;-75
2021/12/07 14:58:47;;;;;;;15.85;3.00;;;8.80;91.70;;;;;;5104122;28;20047;-69
2021/12/07 15:01:20;;;;;;;12.25;3.97;;;8.80;91.60;;;;;;5101050;28;20028;-68